Clear Sky — 3FKB7 — position and weather

sailwx.info

Track history (hours):
 
Tides and Currents Weather Stations Pressure Air Temp Water Temp Dewpoint Dewpoint Depression Visibility Wind Speed Wind Dir Waves Ship Positions

Clear Sky

Last reported at 2017-Dec-04 10:30 UTC. Time now 2017-Dec-16 03:37 UTC.
Position N 46°14' W 123°60'.
Warning: this ship's position is 11 days out of date.

Length 200 m; draft 6.9 m.

Type: Cargo ship. MMSI: 355077000.

Date/timePositionNaut miles runAvg speedWind from/ knotsBaromVisibWave heightAir tempDewpointWater temp
2017-Dec-04 10:30N 46°14' W 123°60'510.5
2017-Dec-04 10:00N 46°11' W 123°53'5 9.3
2017-Dec-04 09:30N 46°13' W 123°47'710.6
2017-Dec-04 08:49N 46°16' W 123°37'311.4
2017-Dec-04 08:30N 46°16' W 123°32'6 8.6
2017-Dec-04 07:50N 46°12' W 123°26'310.5
2017-Dec-04 07:30N 46°09' W 123°23'612.6
2017-Dec-04 07:01N 46°10' W 123°14'612.3
2017-Dec-04 06:30N 46°10' W 123°05'612.7
2017-Dec-04 06:00N 46°06' W 122°58'510.8
2017-Dec-04 05:30N 46°02' W 122°53'711.8
2017-Dec-04 04:56N 45°56' W 122°48'512.5
2017-Dec-04 04:30N 45°51' W 122°47'613.0
2017-Dec-04 04:00N 45°45' W 122°46'611.7
2017-Dec-04 03:30N 45°39' W 122°46'4 7.1
2017-Dec-04 03:01N 45°35' W 122°46'4 7.8
2017-Dec-04 02:31N 45°33' W 122°42'1 1.8
2017-Dec-04 01:58N 45°32' W 122°41'0 0.0
2017-Dec-04 01:28N 45°32' W 122°41'0 0.0
2017-Dec-04 00:58N 45°32' W 122°41'0 0.0
2017-Dec-04 00:28N 45°32' W 122°41'0 0.0
2017-Dec-03 23:58N 45°32' W 122°41'0 0.0
2017-Dec-03 23:28N 45°32' W 122°41'0 0.0
2017-Dec-03 22:58N 45°32' W 122°41'0 0.0
2017-Dec-03 22:25N 45°32' W 122°41'0 0.0
2017-Dec-03 21:58N 45°32' W 122°41'0 0.0
2017-Dec-03 21:25N 45°32' W 122°41'0 0.0
2017-Dec-03 20:58N 45°32' W 122°41'0 0.0
2017-Dec-03 20:28N 45°32' W 122°41'0 0.0
2017-Dec-03 19:58N 45°32' W 122°41'0 0.0
2017-Dec-03 19:25N 45°32' W 122°41'0 0.0
2017-Dec-03 18:55N 45°32' W 122°41'0 0.0
2017-Dec-03 18:28N 45°32' W 122°41'0 0.0
2017-Dec-03 17:58N 45°32' W 122°41'0 0.0
2017-Dec-03 17:28N 45°32' W 122°41'0 0.0
2017-Dec-03 16:58N 45°32' W 122°41'0 0.0
2017-Dec-03 16:28N 45°32' W 122°41'0 0.0
2017-Dec-03 15:58N 45°32' W 122°41'0 0.0
2017-Dec-03 15:28N 45°32' W 122°41'0 0.0
2017-Dec-03 14:58N 45°32' W 122°41'0 0.0
2017-Dec-03 14:28N 45°32' W 122°41'0 0.0
2017-Dec-03 13:58N 45°32' W 122°41'0 0.0
2017-Dec-03 13:28N 45°32' W 122°41'0 0.0
2017-Dec-03 12:58N 45°32' W 122°41'0 0.0
2017-Dec-03 12:28N 45°32' W 122°41'0 0.0
2017-Dec-03 11:58N 45°32' W 122°41'0 0.0
2017-Dec-03 11:28N 45°32' W 122°41'0 0.0
2017-Dec-03 10:58N 45°32' W 122°41'0 0.0
2017-Dec-03 10:28N 45°32' W 122°41'0 0.0
2017-Dec-03 09:58N 45°32' W 122°41'0 0.0
2017-Dec-03 09:28N 45°32' W 122°41'0 0.0
2017-Dec-03 08:58N 45°32' W 122°41'0 0.0
2017-Dec-03 08:28N 45°32' W 122°41'0 0.0
2017-Dec-03 07:58N 45°32' W 122°41'0 0.0
2017-Dec-03 07:28N 45°32' W 122°41'0 0.0
2017-Dec-03 06:58N 45°32' W 122°41'0 0.0
2017-Dec-03 06:28N 45°32' W 122°41'0 0.0
2017-Dec-03 05:58N 45°32' W 122°41'0 0.0
2017-Dec-03 05:28N 45°32' W 122°41'0 0.0
2017-Dec-03 04:58N 45°32' W 122°41'0 0.0
2017-Dec-03 04:28N 45°32' W 122°41'0 0.0
2017-Dec-03 03:58N 45°32' W 122°41'0 0.0
2017-Dec-03 03:28N 45°32' W 122°41'0 0.0
2017-Dec-03 02:58N 45°32' W 122°41'0 0.0
2017-Dec-03 02:28N 45°32' W 122°41'0 0.0
2017-Dec-03 01:58N 45°32' W 122°41'0 0.0
2017-Dec-03 01:28N 45°32' W 122°41'0 0.0
2017-Dec-03 00:58N 45°32' W 122°41'0 0.0
2017-Dec-03 00:28N 45°32' W 122°41'0 0.0
2017-Dec-02 23:58N 45°32' W 122°41'0 0.0
2017-Dec-02 23:28N 45°32' W 122°41'0 0.0
2017-Dec-02 22:58N 45°32' W 122°41'0 0.0
2017-Dec-02 22:28N 45°32' W 122°41'0 0.0
2017-Dec-02 21:58N 45°32' W 122°41'0 0.0
2017-Dec-02 21:28N 45°32' W 122°41'0 0.0
2017-Dec-02 20:58N 45°32' W 122°41'0 0.0
2017-Dec-02 20:28N 45°32' W 122°41'0 0.0
2017-Dec-02 19:58N 45°32' W 122°41'0 0.0
2017-Dec-02 19:28N 45°32' W 122°41'0 0.0
2017-Dec-02 18:58N 45°32' W 122°41'0 0.0
2017-Dec-02 18:28N 45°32' W 122°41'0 0.0
2017-Dec-02 17:58N 45°32' W 122°41'0 0.0
2017-Dec-02 17:28N 45°32' W 122°41'0 0.0
2017-Dec-02 16:58N 45°32' W 122°41'0 0.0
2017-Dec-02 16:28N 45°32' W 122°41'0 0.0
2017-Dec-02 15:58N 45°32' W 122°41'0 0.0
2017-Dec-02 15:28N 45°32' W 122°41'0 0.0
2017-Dec-02 14:58N 45°32' W 122°41'0 0.0
2017-Dec-02 14:28N 45°32' W 122°41'0 0.0
2017-Dec-02 13:58N 45°32' W 122°41'0 0.0
2017-Dec-02 13:28N 45°32' W 122°41'0 0.0
2017-Dec-02 12:58N 45°32' W 122°41'0 0.0
2017-Dec-02 12:28N 45°32' W 122°41'0 0.0
2017-Dec-02 11:58N 45°32' W 122°41'0 0.0
2017-Dec-02 11:28N 45°32' W 122°41'0 0.0
2017-Dec-02 10:58N 45°32' W 122°41'0 0.0
2017-Dec-02 10:28N 45°32' W 122°41'0 0.0
2017-Dec-02 09:58N 45°32' W 122°41'0 0.0
2017-Dec-02 09:28N 45°32' W 122°41'0 0.0
2017-Dec-02 08:58N 45°32' W 122°41'0 0.0
2017-Dec-02 08:28N 45°32' W 122°41'0 0.0
2017-Dec-02 07:58N 45°32' W 122°41'0 0.0
2017-Dec-02 07:28N 45°32' W 122°41'0 0.0
2017-Dec-02 06:58N 45°32' W 122°41'0 0.0
2017-Dec-02 06:28N 45°32' W 122°41'0 0.0
2017-Dec-02 05:58N 45°32' W 122°41'0 0.0
2017-Dec-02 05:28N 45°32' W 122°41'0 0.0
2017-Dec-02 04:58N 45°32' W 122°41'0 0.0
2017-Dec-02 04:28N 45°32' W 122°41'0 0.0
2017-Dec-02 03:58N 45°32' W 122°41'0 0.0
2017-Dec-02 03:28N 45°32' W 122°41'0 0.0
2017-Dec-02 02:58N 45°32' W 122°41'0 0.0
2017-Dec-02 02:28N 45°32' W 122°41'0 0.0
2017-Dec-02 01:58N 45°32' W 122°41'0 0.0
2017-Dec-02 01:28N 45°32' W 122°41'0 0.0
2017-Dec-02 00:58N 45°32' W 122°41'0 0.0
2017-Dec-02 00:28N 45°32' W 122°41'0 0.0
2017-Dec-01 23:58N 45°32' W 122°41'0 0.0
2017-Dec-01 23:28N 45°32' W 122°41'0 0.0
2017-Dec-01 22:58N 45°32' W 122°41'0 0.0
2017-Dec-01 22:28N 45°32' W 122°41'0 0.0
2017-Dec-01 21:58N 45°32' W 122°41'0 0.0
2017-Dec-01 21:28N 45°32' W 122°41'0 0.0
2017-Dec-01 20:58N 45°32' W 122°41'0 0.0
2017-Dec-01 20:28N 45°32' W 122°41'0 0.0
2017-Dec-01 19:58N 45°32' W 122°41'0 0.0
2017-Dec-01 19:28N 45°32' W 122°41'0 0.0
2017-Dec-01 18:58N 45°32' W 122°41'0 0.0
2017-Dec-01 18:28N 45°32' W 122°41'0 0.0
2017-Dec-01 17:58N 45°32' W 122°41'0 0.0
2017-Dec-01 17:28N 45°32' W 122°41'0 0.0
2017-Dec-01 16:58N 45°32' W 122°41'0 0.0
2017-Dec-01 16:28N 45°32' W 122°41'0 0.0
2017-Dec-01 15:58N 45°32' W 122°41'0 0.0
2017-Dec-01 15:28N 45°32' W 122°41'0 0.0
2017-Dec-01 14:58N 45°32' W 122°41'0 0.0
2017-Dec-01 14:28N 45°32' W 122°41'0 0.0
2017-Dec-01 13:58N 45°32' W 122°41'0 0.0
2017-Dec-01 13:28N 45°32' W 122°41'0 0.0
2017-Dec-01 12:58N 45°32' W 122°41'0 0.0
2017-Dec-01 12:28N 45°32' W 122°41'0 0.0
2017-Dec-01 11:58N 45°32' W 122°41'0 0.0
2017-Dec-01 11:22N 45°32' W 122°41'0 0.0
2017-Dec-01 10:58N 45°32' W 122°41'0 0.0
2017-Dec-01 10:28N 45°32' W 122°41'0 0.0
2017-Dec-01 09:58N 45°32' W 122°41'0 0.0
2017-Dec-01 09:28N 45°32' W 122°41'0 0.0
2017-Dec-01 08:58N 45°32' W 122°41'0 0.0
2017-Dec-01 08:28N 45°32' W 122°41'0 0.0
2017-Dec-01 07:58N 45°32' W 122°41'0 0.0
2017-Dec-01 07:28N 45°32' W 122°41'0 0.0
2017-Dec-01 06:58N 45°32' W 122°41'0 0.0
2017-Dec-01 06:28N 45°32' W 122°41'0 0.0
2017-Dec-01 05:58N 45°32' W 122°41'0 0.0
2017-Dec-01 05:28N 45°32' W 122°41'0 0.0
2017-Dec-01 04:58N 45°32' W 122°41'0 0.0
2017-Dec-01 04:28N 45°32' W 122°41'0 0.0
2017-Dec-01 03:58N 45°32' W 122°41'0 0.0
2017-Dec-01 03:28N 45°32' W 122°41'0 0.0
2017-Dec-01 02:58N 45°32' W 122°41'0 0.0
2017-Dec-01 02:28N 45°32' W 122°41'0 0.0
2017-Dec-01 01:58N 45°32' W 122°41'0 0.0
2017-Dec-01 01:28N 45°32' W 122°41'0 0.0
2017-Dec-01 00:58N 45°32' W 122°41'0 0.0
2017-Dec-01 00:28N 45°32' W 122°41'0 0.0
2017-Nov-30 23:58N 45°32' W 122°41'0 0.0
2017-Nov-30 23:28N 45°32' W 122°41'0 0.0
2017-Nov-30 22:58N 45°32' W 122°41'0 0.0
2017-Nov-30 22:28N 45°32' W 122°41'0 0.0
2017-Nov-30 21:58N 45°32' W 122°41'0 0.0
2017-Nov-30 21:28N 45°32' W 122°41'0 0.0
2017-Nov-30 20:58N 45°32' W 122°41'0 0.0
2017-Nov-30 20:28N 45°32' W 122°41'0 0.0
2017-Nov-30 19:58N 45°32' W 122°41'0 0.0
2017-Nov-30 19:28N 45°32' W 122°41'0 0.0
2017-Nov-30 18:58N 45°32' W 122°41'0 0.0
2017-Nov-30 18:28N 45°32' W 122°41'0 0.0
2017-Nov-30 17:58N 45°32' W 122°41'0 0.0
2017-Nov-30 17:28N 45°32' W 122°41'0 0.0
2017-Nov-30 16:55N 45°32' W 122°41'0 0.0
2017-Nov-30 16:28N 45°32' W 122°41'0 0.0
2017-Nov-30 15:58N 45°32' W 122°41'0 0.0
2017-Nov-30 15:28N 45°32' W 122°41'0 0.0
2017-Nov-30 14:58N 45°32' W 122°41'0 0.0
2017-Nov-30 14:28N 45°32' W 122°41'0 0.0
2017-Nov-30 13:58N 45°32' W 122°41'0 0.0
2017-Nov-30 13:28N 45°32' W 122°41'0 0.0
2017-Nov-30 12:58N 45°32' W 122°41'0 0.0
2017-Nov-30 12:28N 45°32' W 122°41'0 0.0
2017-Nov-30 11:58N 45°32' W 122°41'0 0.0
2017-Nov-30 11:28N 45°32' W 122°41'0 0.0
2017-Nov-30 10:58N 45°32' W 122°41'0 0.0
2017-Nov-30 10:28N 45°32' W 122°41'0 0.0
2017-Nov-30 09:58N 45°32' W 122°41'0 0.0
2017-Nov-30 09:28N 45°32' W 122°41'0 0.0
2017-Nov-30 08:58N 45°32' W 122°41'0 0.0
2017-Nov-30 08:28N 45°32' W 122°41'0 0.0
2017-Nov-30 07:58N 45°32' W 122°41'0 0.0
2017-Nov-30 07:28N 45°32' W 122°41'0 0.0
2017-Nov-30 06:58N 45°32' W 122°41'0 0.0
2017-Nov-30 06:28N 45°32' W 122°41'0 0.0
2017-Nov-30 05:58N 45°32' W 122°41'0 0.0
2017-Nov-30 05:28N 45°32' W 122°41'0 0.0
2017-Nov-30 04:58N 45°32' W 122°41'0 0.0
2017-Nov-30 04:28N 45°32' W 122°41'0 0.0
2017-Nov-30 03:58N 45°32' W 122°41'0 0.0
2017-Nov-30 03:28N 45°32' W 122°41'0 0.0
2017-Nov-30 02:58N 45°32' W 122°41'0 0.0
2017-Nov-30 02:28N 45°32' W 122°41'0 0.0
2017-Nov-30 01:58N 45°32' W 122°41'0 0.0
2017-Nov-30 01:28N 45°32' W 122°41'0 0.0
2017-Nov-30 00:58N 45°32' W 122°41'0 0.0
2017-Nov-30 00:25N 45°32' W 122°41'0 0.0
2017-Nov-29 23:55N 45°32' W 122°41'0 0.0
2017-Nov-29 23:28N 45°32' W 122°41'0 0.0
2017-Nov-29 22:58N 45°32' W 122°41'0 0.0
2017-Nov-29 22:28N 45°32' W 122°41'0 0.0
2017-Nov-29 21:58N 45°32' W 122°41'0 0.0
2017-Nov-29 21:28N 45°32' W 122°41'0 0.0
2017-Nov-29 20:58N 45°32' W 122°41'0 0.0
2017-Nov-29 20:28N 45°32' W 122°41'0 0.0
2017-Nov-29 19:55N 45°32' W 122°41'0 0.0
2017-Nov-29 19:28N 45°32' W 122°41'0 0.0
2017-Nov-29 18:58N 45°32' W 122°41'0 0.0
2017-Nov-29 18:28N 45°32' W 122°41'0 0.0
2017-Nov-29 17:58N 45°32' W 122°41'0 0.0
2017-Nov-29 17:28N 45°32' W 122°41'0 0.0
2017-Nov-29 16:58N 45°32' W 122°41'0 0.0
2017-Nov-29 16:28N 45°32' W 122°41'0 0.0
2017-Nov-29 15:58N 45°32' W 122°41'0 0.0
2017-Nov-29 15:28N 45°32' W 122°41'0 0.0
2017-Nov-29 14:58N 45°32' W 122°41'0 0.0
2017-Nov-29 14:28N 45°32' W 122°41'0 0.0
2017-Nov-29 13:58N 45°32' W 122°41'0 0.0
2017-Nov-29 13:28N 45°32' W 122°41'0 0.0
2017-Nov-29 12:55N 45°32' W 122°41'0 0.0
2017-Nov-29 12:28N 45°32' W 122°41'0 0.0
2017-Nov-29 11:58N 45°32' W 122°41'0 0.0
2017-Nov-29 11:28N 45°32' W 122°41'0 0.0
2017-Nov-29 10:58N 45°32' W 122°41'0 0.0
2017-Nov-29 10:28N 45°32' W 122°41'0 0.0
2017-Nov-29 09:58N 45°32' W 122°41'0 0.0
2017-Nov-29 09:28N 45°32' W 122°41'0 0.0
2017-Nov-29 08:58N 45°32' W 122°41'0 0.0
2017-Nov-29 08:28N 45°32' W 122°41'0 0.0
2017-Nov-29 07:58N 45°32' W 122°41'0 0.0
2017-Nov-29 07:28N 45°32' W 122°41'0 0.0
2017-Nov-29 06:58N 45°32' W 122°41'0 0.0
2017-Nov-29 06:28N 45°32' W 122°41'0 0.0
2017-Nov-29 05:55N 45°32' W 122°41'0 0.0
2017-Nov-29 05:28N 45°32' W 122°41'0 0.0
2017-Nov-29 05:00N 45°32' W 122°41'0 0.0
2017-Nov-29 04:28N 45°32' W 122°41'0 0.0
2017-Nov-29 03:58N 45°32' W 122°41'0 0.0
2017-Nov-29 03:28N 45°32' W 122°41'0 0.0
2017-Nov-29 02:58N 45°32' W 122°41'0 0.0
2017-Nov-29 02:28N 45°32' W 122°41'0 0.0
2017-Nov-29 01:58N 45°32' W 122°41'0 0.0
2017-Nov-29 01:28N 45°32' W 122°41'0 0.0
2017-Nov-29 00:58N 45°32' W 122°41'0 0.0
2017-Nov-29 00:28N 45°32' W 122°41'0 0.0
2017-Nov-28 23:58N 45°32' W 122°41'0 0.0
2017-Nov-28 23:28N 45°32' W 122°41'0 0.0
2017-Nov-28 22:58N 45°32' W 122°41'0 0.0
2017-Nov-28 22:28N 45°32' W 122°41'0 0.0
2017-Nov-28 21:58N 45°32' W 122°41'0 0.0
2017-Nov-28 21:28N 45°32' W 122°41'0 0.0
2017-Nov-28 20:58N 45°32' W 122°41'0 0.0
2017-Nov-28 20:28N 45°32' W 122°41'0 0.0
2017-Nov-28 19:58N 45°32' W 122°41'0 0.0
2017-Nov-28 19:28N 45°32' W 122°41'0 0.0
2017-Nov-28 18:58N 45°32' W 122°41'0 0.0
2017-Nov-28 18:28N 45°32' W 122°41'0 0.0
2017-Nov-28 17:58N 45°32' W 122°41'0 0.0
2017-Nov-28 17:28N 45°32' W 122°41'0 0.0
2017-Nov-28 16:58N 45°32' W 122°41'0 0.0
2017-Nov-28 16:28N 45°32' W 122°41'0 0.0
2017-Nov-28 15:58N 45°32' W 122°41'0 0.0
2017-Nov-28 14:58N 45°32' W 122°41'0 0.0
2017-Nov-28 14:28N 45°32' W 122°41'0 0.0
2017-Nov-28 13:58N 45°32' W 122°41'0 0.0
2017-Nov-28 13:25N 45°32' W 122°41'0 0.0
2017-Nov-28 12:58N 45°32' W 122°41'0 0.0
2017-Nov-28 12:28N 45°32' W 122°41'0 0.0
2017-Nov-28 11:58N 45°32' W 122°41'0 0.0
2017-Nov-28 11:28N 45°32' W 122°41'0 0.0
2017-Nov-28 10:58N 45°32' W 122°41'0 0.0
2017-Nov-28 10:28N 45°32' W 122°41'0 0.0
2017-Nov-28 09:58N 45°32' W 122°41'0 0.0
2017-Nov-28 09:25N 45°32' W 122°41'0 0.0
2017-Nov-28 08:58N 45°32' W 122°41'0 0.0
2017-Nov-28 08:28N 45°32' W 122°41'0 0.0
2017-Nov-28 07:58N 45°32' W 122°41'0 0.0
2017-Nov-28 07:28N 45°32' W 122°41'0 0.0
2017-Nov-28 06:58N 45°32' W 122°41'0 0.0
2017-Nov-28 06:28N 45°32' W 122°41'0 0.0
2017-Nov-28 05:58N 45°32' W 122°41'0 0.0
2017-Nov-28 05:28N 45°32' W 122°41'0 0.0
2017-Nov-28 04:28N 45°32' W 122°41'0 0.0
2017-Nov-28 03:58N 45°32' W 122°41'0 0.0
2017-Nov-28 03:28N 45°32' W 122°41'0 0.0
2017-Nov-28 02:58N 45°32' W 122°41'0 0.0
2017-Nov-28 02:28N 45°32' W 122°41'0 0.0
2017-Nov-28 01:58N 45°32' W 122°41'0 0.0
2017-Nov-28 01:28N 45°32' W 122°41'0 0.0
2017-Nov-28 00:58N 45°32' W 122°41'0 0.0
2017-Nov-28 00:28N 45°32' W 122°41'0 0.0
2017-Nov-27 23:58N 45°32' W 122°41'0 0.0
2017-Nov-27 23:28N 45°32' W 122°41'0 0.0
2017-Nov-27 22:58N 45°32' W 122°41'0 0.0
2017-Nov-27 22:28N 45°32' W 122°41'0 0.0
2017-Nov-27 21:58N 45°32' W 122°41'0 0.0
2017-Nov-27 21:28N 45°32' W 122°41'0 0.0
2017-Nov-27 20:58N 45°32' W 122°41'0 0.0
2017-Nov-27 20:28N 45°32' W 122°41'0 0.0
2017-Nov-27 19:58N 45°32' W 122°41'0 0.0
2017-Nov-27 19:28N 45°32' W 122°41'0 0.0
2017-Nov-27 18:58N 45°32' W 122°41'0 0.0
2017-Nov-27 18:28N 45°32' W 122°41'0 0.0
2017-Nov-27 17:58N 45°32' W 122°41'0 0.0
2017-Nov-27 17:28N 45°32' W 122°41'0 0.0
2017-Nov-27 16:58N 45°32' W 122°41'0 0.0
2017-Nov-27 16:28N 45°32' W 122°41'0 0.0
2017-Nov-27 15:58N 45°32' W 122°41'0 0.0
2017-Nov-27 15:28N 45°32' W 122°41'0 0.0
2017-Nov-27 14:58N 45°32' W 122°41'0 0.0
2017-Nov-27 14:25N 45°32' W 122°41'0 0.0
2017-Nov-27 13:58N 45°32' W 122°41'0 0.0
2017-Nov-27 13:28N 45°32' W 122°41'0 0.0
2017-Nov-27 12:58N 45°32' W 122°41'0 0.0
2017-Nov-27 12:28N 45°32' W 122°41'0 0.0
2017-Nov-27 11:58N 45°32' W 122°41'0 0.0
2017-Nov-27 11:28N 45°32' W 122°41'0 0.0
2017-Nov-27 10:58N 45°32' W 122°41'0 0.0
2017-Nov-27 10:28N 45°32' W 122°41'0 0.0
2017-Nov-27 09:58N 45°32' W 122°41'0 0.0
2017-Nov-27 09:28N 45°32' W 122°41'0 0.0
2017-Nov-27 08:58N 45°32' W 122°41'0 0.0
2017-Nov-27 08:28N 45°32' W 122°41'0 0.0
2017-Nov-27 07:58N 45°32' W 122°41'0 0.0
2017-Nov-27 07:28N 45°32' W 122°41'0 0.0
2017-Nov-27 06:58N 45°32' W 122°41'0 0.0
2017-Nov-27 06:28N 45°32' W 122°41'0 0.0
2017-Nov-27 05:58N 45°32' W 122°41'0 0.0
2017-Nov-27 05:28N 45°32' W 122°41'0 0.0
2017-Nov-27 04:58N 45°32' W 122°41'0 0.0
2017-Nov-27 04:28N 45°32' W 122°41'0 0.0
2017-Nov-27 03:58N 45°32' W 122°41'0 0.0
2017-Nov-27 03:28N 45°32' W 122°41'0 0.0
2017-Nov-27 02:59N 45°32' W 122°41'0 0.0
2017-Nov-27 02:28N 45°32' W 122°41'0 0.0
2017-Nov-27 01:58N 45°32' W 122°41'0 0.0
2017-Nov-27 01:28N 45°32' W 122°41'0 0.0
2017-Nov-27 00:58N 45°32' W 122°41'0 0.0
2017-Nov-27 00:28N 45°32' W 122°41'0 0.0
2017-Nov-26 23:58N 45°32' W 122°41'0 0.0
2017-Nov-26 23:28N 45°32' W 122°41'0 0.0
2017-Nov-26 22:58N 45°32' W 122°41'0 0.0
2017-Nov-26 22:28N 45°32' W 122°41'0 0.0
2017-Nov-26 21:58N 45°32' W 122°41'0 0.0
2017-Nov-26 21:28N 45°32' W 122°41'0 0.0
2017-Nov-26 20:55N 45°32' W 122°41'0 0.0
2017-Nov-26 20:28N 45°32' W 122°41'0 0.0
2017-Nov-26 19:58N 45°32' W 122°41'0 0.0
2017-Nov-26 19:25N 45°32' W 122°41'0 0.0
2017-Nov-26 18:58N 45°32' W 122°41'0 0.0
2017-Nov-26 18:28N 45°32' W 122°41'0 0.0
2017-Nov-26 17:58N 45°32' W 122°41'0 0.0
2017-Nov-26 17:28N 45°32' W 122°41'0 0.0
2017-Nov-26 16:58N 45°32' W 122°41'0 0.0
2017-Nov-26 16:28N 45°32' W 122°41'0 0.0
2017-Nov-26 15:58N 45°32' W 122°41'0 0.0
2017-Nov-26 15:28N 45°32' W 122°41'0 0.0
2017-Nov-26 14:58N 45°32' W 122°41'0 0.0
2017-Nov-26 14:28N 45°32' W 122°41'0 0.0
2017-Nov-26 13:58N 45°32' W 122°41'0 0.0
2017-Nov-26 13:28N 45°32' W 122°41'0 0.0
2017-Nov-26 12:58N 45°32' W 122°41'0 0.0
2017-Nov-26 12:28N 45°32' W 122°41'0 0.0
2017-Nov-26 11:58N 45°32' W 122°41'0 0.0
2017-Nov-26 11:28N 45°32' W 122°41'0 0.0
2017-Nov-26 10:58N 45°32' W 122°41'0 0.0
2017-Nov-26 10:28N 45°32' W 122°41'0 0.0
2017-Nov-26 09:58N 45°32' W 122°41'0 0.0
2017-Nov-26 09:28N 45°32' W 122°41'0 0.0
2017-Nov-26 08:58N 45°32' W 122°41'0 0.0
2017-Nov-26 08:28N 45°32' W 122°41'0 0.0
2017-Nov-26 07:58N 45°32' W 122°41'0 0.0
2017-Nov-26 07:28N 45°32' W 122°41'0 0.0
2017-Nov-26 06:58N 45°32' W 122°41'0 0.0
2017-Nov-26 06:28N 45°32' W 122°41'0 0.0
2017-Nov-26 05:58N 45°32' W 122°41'0 0.0
2017-Nov-26 05:28N 45°32' W 122°41'0 0.0
2017-Nov-26 04:58N 45°32' W 122°41'0 0.0
2017-Nov-26 04:28N 45°32' W 122°41'0 0.0
2017-Nov-26 03:58N 45°32' W 122°41'0 0.0
2017-Nov-26 03:28N 45°32' W 122°41'0 0.0
2017-Nov-26 02:52N 45°32' W 122°41'0 0.0
2017-Nov-26 02:28N 45°32' W 122°41'0 0.0
2017-Nov-26 01:58N 45°32' W 122°41'0 0.0
2017-Nov-26 01:28N 45°32' W 122°41'0 0.0
2017-Nov-26 00:55N 45°32' W 122°41'0 0.0
2017-Nov-26 00:28N 45°32' W 122°41'0 0.0
2017-Nov-25 23:58N 45°32' W 122°41'0 0.0
2017-Nov-25 23:28N 45°32' W 122°41'0 0.0
2017-Nov-25 22:58N 45°32' W 122°41'0 0.0
2017-Nov-25 22:28N 45°32' W 122°41'0 0.0
2017-Nov-25 21:58N 45°32' W 122°41'0 0.0
2017-Nov-25 21:28N 45°32' W 122°41'0 0.0
2017-Nov-25 20:58N 45°32' W 122°41'0 0.0
2017-Nov-25 20:28N 45°32' W 122°41'0 0.0
2017-Nov-25 19:58N 45°32' W 122°41'0 0.0
2017-Nov-25 19:28N 45°32' W 122°41'0 0.0
2017-Nov-25 18:58N 45°32' W 122°41'0 0.0
2017-Nov-25 18:28N 45°32' W 122°41'0 0.0
2017-Nov-25 17:58N 45°32' W 122°41'0 0.0
2017-Nov-25 17:28N 45°32' W 122°41'0 0.0
2017-Nov-25 16:58N 45°32' W 122°41'0 0.0
2017-Nov-25 16:28N 45°32' W 122°41'0 0.0
2017-Nov-25 15:58N 45°32' W 122°41'0 0.0
2017-Nov-25 15:25N 45°32' W 122°41'0 0.0
2017-Nov-25 14:55N 45°32' W 122°41'0 0.0
2017-Nov-25 14:25N 45°32' W 122°41'0 0.0
2017-Nov-25 13:58N 45°32' W 122°41'0 0.0
2017-Nov-25 13:28N 45°32' W 122°41'1 1.8
2017-Nov-25 13:01N 45°33' W 122°41'4 7.6
2017-Nov-25 12:31N 45°35' W 122°46'4 8.0
2017-Nov-25 12:01N 45°39' W 122°46'4 8.7
2017-Nov-25 11:31N 45°43' W 122°46'510.9
2017-Nov-25 11:01N 45°49' W 122°48'510.5
2017-Nov-25 10:31N 45°54' W 122°48'5 9.9
2017-Nov-25 10:01N 45°59' W 122°50'4 8.3
2017-Nov-25 09:31N 46°02' W 122°53'4 8.8
2017-Nov-25 09:00N 46°06' W 122°57'4 7.8
2017-Nov-25 08:31N 46°08' W 123°01'611.0
2017-Nov-25 08:01N 46°11' W 123°08'510.1
2017-Nov-25 07:31N 46°10' W 123°15'510.5
2017-Nov-25 07:00N 46°09' W 123°22'7 9.5
2017-Nov-25 06:16N 46°15' W 123°27'310.6
2017-Nov-25 06:00N 46°16' W 123°30'611.1
2017-Nov-25 05:31N 46°16' W 123°38'5 9.5
2017-Nov-25 05:01N 46°14' W 123°45'0 0.2
2017-Nov-25 04:28N 46°14' W 123°45'0 0.0
2017-Nov-25 03:46N 46°14' W 123°45'0 0.0
2017-Nov-25 03:28N 46°14' W 123°45'0 0.0
2017-Nov-25 02:55N 46°14' W 123°45'0 0.0
2017-Nov-25 02:25N 46°14' W 123°45'0 0.0
2017-Nov-25 01:58N 46°14' W 123°45'0 0.1
2017-Nov-25 01:28N 46°14' W 123°45'0 0.1
2017-Nov-25 00:37N 46°14' W 123°45'0 0.0
2017-Nov-25 00:28N 46°14' W 123°45'0 0.2
2017-Nov-24 23:58N 46°14' W 123°45'0 0.0
2017-Nov-24 23:28N 46°14' W 123°45'0 0.0
2017-Nov-24 22:58N 46°14' W 123°45'0 0.2
2017-Nov-24 22:28N 46°14' W 123°45'0 0.0
2017-Nov-24 21:58N 46°14' W 123°45'0 0.0
2017-Nov-24 21:28N 46°14' W 123°45'0 0.1
2017-Nov-24 20:58N 46°14' W 123°45'0 0.1
2017-Nov-24 20:28N 46°14' W 123°45'0 0.1
2017-Nov-24 19:58N 46°14' W 123°45'0 0.1
2017-Nov-24 19:28N 46°14' W 123°45'0 0.0
2017-Nov-24 18:58N 46°14' W 123°45'0 0.0
2017-Nov-24 18:22N 46°14' W 123°45'0 0.0
2017-Nov-24 17:58N 46°14' W 123°45'0 0.0
2017-Nov-24 17:28N 46°14' W 123°45'0 0.0
2017-Nov-24 16:58N 46°14' W 123°45'0 0.0
2017-Nov-24 16:28N 46°14' W 123°45'0 0.0
2017-Nov-24 15:58N 46°14' W 123°45'0 0.0
2017-Nov-24 14:52N 46°14' W 123°45'0 0.1
2017-Nov-24 14:28N 46°14' W 123°45'0 0.0
2017-Nov-24 13:55N 46°14' W 123°45'0 0.3
2017-Nov-24 13:25N 46°14' W 123°45'0 0.1
2017-Nov-24 12:55N 46°14' W 123°45'0 0.1
2017-Nov-24 12:28N 46°14' W 123°45'0 0.1
2017-Nov-24 11:58N 46°14' W 123°44'0 0.0
2017-Nov-24 11:28N 46°14' W 123°44'0 0.0
2017-Nov-24 10:58N 46°14' W 123°44'  
Track history (hours):
 
Tides and Currents Weather Stations Pressure Air Temp Water Temp Dewpoint Dewpoint Depression Visibility Wind Speed Wind Dir Waves Ship Positions

Clear Sky

Last reported at 2017-Dec-04 10:30 UTC. Time now 2017-Dec-16 03:37 UTC.
Position N 46°14' W 123°60'.
Warning: this ship's position is 11 days out of date.

Length 200 m; draft 6.9 m.

Type: Cargo ship. MMSI: 355077000.

Date/timePositionNaut miles runAvg speedWind from/ knotsBaromVisibWave heightAir tempDewpointWater temp
2017-Dec-04 10:30N 46°14' W 123°60'510.5
2017-Dec-04 10:00N 46°11' W 123°53'5 9.3
2017-Dec-04 09:30N 46°13' W 123°47'710.6
2017-Dec-04 08:49N 46°16' W 123°37'311.4
2017-Dec-04 08:30N 46°16' W 123°32'6 8.6
2017-Dec-04 07:50N 46°12' W 123°26'310.5
2017-Dec-04 07:30N 46°09' W 123°23'612.6
2017-Dec-04 07:01N 46°10' W 123°14'612.3
2017-Dec-04 06:30N 46°10' W 123°05'612.7
2017-Dec-04 06:00N 46°06' W 122°58'510.8
2017-Dec-04 05:30N 46°02' W 122°53'711.8
2017-Dec-04 04:56N 45°56' W 122°48'512.5
2017-Dec-04 04:30N 45°51' W 122°47'613.0
2017-Dec-04 04:00N 45°45' W 122°46'611.7
2017-Dec-04 03:30N 45°39' W 122°46'4 7.1
2017-Dec-04 03:01N 45°35' W 122°46'4 7.8
2017-Dec-04 02:31N 45°33' W 122°42'1 1.8
2017-Dec-04 01:58N 45°32' W 122°41'0 0.0
2017-Dec-04 01:28N 45°32' W 122°41'0 0.0
2017-Dec-04 00:58N 45°32' W 122°41'0 0.0
2017-Dec-04 00:28N 45°32' W 122°41'0 0.0
2017-Dec-03 23:58N 45°32' W 122°41'0 0.0
2017-Dec-03 23:28N 45°32' W 122°41'0 0.0
2017-Dec-03 22:58N 45°32' W 122°41'0 0.0
2017-Dec-03 22:25N 45°32' W 122°41'0 0.0
2017-Dec-03 21:58N 45°32' W 122°41'0 0.0
2017-Dec-03 21:25N 45°32' W 122°41'0 0.0
2017-Dec-03 20:58N 45°32' W 122°41'0 0.0
2017-Dec-03 20:28N 45°32' W 122°41'0 0.0
2017-Dec-03 19:58N 45°32' W 122°41'0 0.0
2017-Dec-03 19:25N 45°32' W 122°41'0 0.0
2017-Dec-03 18:55N 45°32' W 122°41'0 0.0
2017-Dec-03 18:28N 45°32' W 122°41'0 0.0
2017-Dec-03 17:58N 45°32' W 122°41'0 0.0
2017-Dec-03 17:28N 45°32' W 122°41'0 0.0
2017-Dec-03 16:58N 45°32' W 122°41'0 0.0
2017-Dec-03 16:28N 45°32' W 122°41'0 0.0
2017-Dec-03 15:58N 45°32' W 122°41'0 0.0
2017-Dec-03 15:28N 45°32' W 122°41'0 0.0
2017-Dec-03 14:58N 45°32' W 122°41'0 0.0
2017-Dec-03 14:28N 45°32' W 122°41'0 0.0
2017-Dec-03 13:58N 45°32' W 122°41'0 0.0
2017-Dec-03 13:28N 45°32' W 122°41'0 0.0
2017-Dec-03 12:58N 45°32' W 122°41'0 0.0
2017-Dec-03 12:28N 45°32' W 122°41'0 0.0
2017-Dec-03 11:58N 45°32' W 122°41'0 0.0
2017-Dec-03 11:28N 45°32' W 122°41'0 0.0
2017-Dec-03 10:58N 45°32' W 122°41'0 0.0
2017-Dec-03 10:28N 45°32' W 122°41'0 0.0
2017-Dec-03 09:58N 45°32' W 122°41'0 0.0
2017-Dec-03 09:28N 45°32' W 122°41'0 0.0
2017-Dec-03 08:58N 45°32' W 122°41'0 0.0
2017-Dec-03 08:28N 45°32' W 122°41'0 0.0
2017-Dec-03 07:58N 45°32' W 122°41'0 0.0
2017-Dec-03 07:28N 45°32' W 122°41'0 0.0
2017-Dec-03 06:58N 45°32' W 122°41'0 0.0
2017-Dec-03 06:28N 45°32' W 122°41'0 0.0
2017-Dec-03 05:58N 45°32' W 122°41'0 0.0
2017-Dec-03 05:28N 45°32' W 122°41'0 0.0
2017-Dec-03 04:58N 45°32' W 122°41'0 0.0
2017-Dec-03 04:28N 45°32' W 122°41'0 0.0
2017-Dec-03 03:58N 45°32' W 122°41'0 0.0
2017-Dec-03 03:28N 45°32' W 122°41'0 0.0
2017-Dec-03 02:58N 45°32' W 122°41'0 0.0
2017-Dec-03 02:28N 45°32' W 122°41'0 0.0
2017-Dec-03 01:58N 45°32' W 122°41'0 0.0
2017-Dec-03 01:28N 45°32' W 122°41'0 0.0
2017-Dec-03 00:58N 45°32' W 122°41'0 0.0
2017-Dec-03 00:28N 45°32' W 122°41'0 0.0
2017-Dec-02 23:58N 45°32' W 122°41'0 0.0
2017-Dec-02 23:28N 45°32' W 122°41'0 0.0
2017-Dec-02 22:58N 45°32' W 122°41'0 0.0
2017-Dec-02 22:28N 45°32' W 122°41'0 0.0
2017-Dec-02 21:58N 45°32' W 122°41'0 0.0
2017-Dec-02 21:28N 45°32' W 122°41'0 0.0
2017-Dec-02 20:58N 45°32' W 122°41'0 0.0
2017-Dec-02 20:28N 45°32' W 122°41'0 0.0
2017-Dec-02 19:58N 45°32' W 122°41'0 0.0
2017-Dec-02 19:28N 45°32' W 122°41'0 0.0
2017-Dec-02 18:58N 45°32' W 122°41'0 0.0
2017-Dec-02 18:28N 45°32' W 122°41'0 0.0
2017-Dec-02 17:58N 45°32' W 122°41'0 0.0
2017-Dec-02 17:28N 45°32' W 122°41'0 0.0
2017-Dec-02 16:58N 45°32' W 122°41'0 0.0
2017-Dec-02 16:28N 45°32' W 122°41'0 0.0
2017-Dec-02 15:58N 45°32' W 122°41'0 0.0
2017-Dec-02 15:28N 45°32' W 122°41'0 0.0
2017-Dec-02 14:58N 45°32' W 122°41'0 0.0
2017-Dec-02 14:28N 45°32' W 122°41'0 0.0
2017-Dec-02 13:58N 45°32' W 122°41'0 0.0
2017-Dec-02 13:28N 45°32' W 122°41'0 0.0
2017-Dec-02 12:58N 45°32' W 122°41'0 0.0
2017-Dec-02 12:28N 45°32' W 122°41'0 0.0
2017-Dec-02 11:58N 45°32' W 122°41'0 0.0
2017-Dec-02 11:28N 45°32' W 122°41'0 0.0
2017-Dec-02 10:58N 45°32' W 122°41'0 0.0
2017-Dec-02 10:28N 45°32' W 122°41'0 0.0
2017-Dec-02 09:58N 45°32' W 122°41'0 0.0
2017-Dec-02 09:28N 45°32' W 122°41'0 0.0
2017-Dec-02 08:58N 45°32' W 122°41'0 0.0
2017-Dec-02 08:28N 45°32' W 122°41'0 0.0
2017-Dec-02 07:58N 45°32' W 122°41'0 0.0
2017-Dec-02 07:28N 45°32' W 122°41'0 0.0
2017-Dec-02 06:58N 45°32' W 122°41'0 0.0
2017-Dec-02 06:28N 45°32' W 122°41'0 0.0
2017-Dec-02 05:58N 45°32' W 122°41'0 0.0
2017-Dec-02 05:28N 45°32' W 122°41'0 0.0
2017-Dec-02 04:58N 45°32' W 122°41'0 0.0
2017-Dec-02 04:28N 45°32' W 122°41'0 0.0
2017-Dec-02 03:58N 45°32' W 122°41'0 0.0
2017-Dec-02 03:28N 45°32' W 122°41'0 0.0
2017-Dec-02 02:58N 45°32' W 122°41'0 0.0
2017-Dec-02 02:28N 45°32' W 122°41'0 0.0
2017-Dec-02 01:58N 45°32' W 122°41'0 0.0
2017-Dec-02 01:28N 45°32' W 122°41'0 0.0
2017-Dec-02 00:58N 45°32' W 122°41'0 0.0
2017-Dec-02 00:28N 45°32' W 122°41'0 0.0
2017-Dec-01 23:58N 45°32' W 122°41'0 0.0
2017-Dec-01 23:28N 45°32' W 122°41'0 0.0
2017-Dec-01 22:58N 45°32' W 122°41'0 0.0
2017-Dec-01 22:28N 45°32' W 122°41'0 0.0
2017-Dec-01 21:58N 45°32' W 122°41'0 0.0
2017-Dec-01 21:28N 45°32' W 122°41'0 0.0
2017-Dec-01 20:58N 45°32' W 122°41'0 0.0
2017-Dec-01 20:28N 45°32' W 122°41'0 0.0
2017-Dec-01 19:58N 45°32' W 122°41'0 0.0
2017-Dec-01 19:28N 45°32' W 122°41'0 0.0
2017-Dec-01 18:58N 45°32' W 122°41'0 0.0
2017-Dec-01 18:28N 45°32' W 122°41'0 0.0
2017-Dec-01 17:58N 45°32' W 122°41'0 0.0
2017-Dec-01 17:28N 45°32' W 122°41'0 0.0
2017-Dec-01 16:58N 45°32' W 122°41'0 0.0
2017-Dec-01 16:28N 45°32' W 122°41'0 0.0
2017-Dec-01 15:58N 45°32' W 122°41'0 0.0
2017-Dec-01 15:28N 45°32' W 122°41'0 0.0
2017-Dec-01 14:58N 45°32' W 122°41'0 0.0
2017-Dec-01 14:28N 45°32' W 122°41'0 0.0
2017-Dec-01 13:58N 45°32' W 122°41'0 0.0
2017-Dec-01 13:28N 45°32' W 122°41'0 0.0
2017-Dec-01 12:58N 45°32' W 122°41'0 0.0
2017-Dec-01 12:28N 45°32' W 122°41'0 0.0
2017-Dec-01 11:58N 45°32' W 122°41'0 0.0
2017-Dec-01 11:22N 45°32' W 122°41'0 0.0
2017-Dec-01 10:58N 45°32' W 122°41'0 0.0
2017-Dec-01 10:28N 45°32' W 122°41'0 0.0
2017-Dec-01 09:58N 45°32' W 122°41'0 0.0
2017-Dec-01 09:28N 45°32' W 122°41'0 0.0
2017-Dec-01 08:58N 45°32' W 122°41'0 0.0
2017-Dec-01 08:28N 45°32' W 122°41'0 0.0
2017-Dec-01 07:58N 45°32' W 122°41'0 0.0
2017-Dec-01 07:28N 45°32' W 122°41'0 0.0
2017-Dec-01 06:58N 45°32' W 122°41'0 0.0
2017-Dec-01 06:28N 45°32' W 122°41'0 0.0
2017-Dec-01 05:58N 45°32' W 122°41'0 0.0
2017-Dec-01 05:28N 45°32' W 122°41'0 0.0
2017-Dec-01 04:58N 45°32' W 122°41'0 0.0
2017-Dec-01 04:28N 45°32' W 122°41'0 0.0
2017-Dec-01 03:58N 45°32' W 122°41'0 0.0
2017-Dec-01 03:28N 45°32' W 122°41'0 0.0
2017-Dec-01 02:58N 45°32' W 122°41'0 0.0
2017-Dec-01 02:28N 45°32' W 122°41'0 0.0
2017-Dec-01 01:58N 45°32' W 122°41'0 0.0
2017-Dec-01 01:28N 45°32' W 122°41'0 0.0
2017-Dec-01 00:58N 45°32' W 122°41'0 0.0
2017-Dec-01 00:28N 45°32' W 122°41'0 0.0
2017-Nov-30 23:58N 45°32' W 122°41'0 0.0
2017-Nov-30 23:28N 45°32' W 122°41'0 0.0
2017-Nov-30 22:58N 45°32' W 122°41'0 0.0
2017-Nov-30 22:28N 45°32' W 122°41'0 0.0
2017-Nov-30 21:58N 45°32' W 122°41'0 0.0
2017-Nov-30 21:28N 45°32' W 122°41'0 0.0
2017-Nov-30 20:58N 45°32' W 122°41'0 0.0
2017-Nov-30 20:28N 45°32' W 122°41'0 0.0
2017-Nov-30 19:58N 45°32' W 122°41'0 0.0
2017-Nov-30 19:28N 45°32' W 122°41'0 0.0
2017-Nov-30 18:58N 45°32' W 122°41'0 0.0
2017-Nov-30 18:28N 45°32' W 122°41'0 0.0
2017-Nov-30 17:58N 45°32' W 122°41'0 0.0
2017-Nov-30 17:28N 45°32' W 122°41'0 0.0
2017-Nov-30 16:55N 45°32' W 122°41'0 0.0
2017-Nov-30 16:28N 45°32' W 122°41'0 0.0
2017-Nov-30 15:58N 45°32' W 122°41'0 0.0
2017-Nov-30 15:28N 45°32' W 122°41'0 0.0
2017-Nov-30 14:58N 45°32' W 122°41'0 0.0
2017-Nov-30 14:28N 45°32' W 122°41'0 0.0
2017-Nov-30 13:58N 45°32' W 122°41'0 0.0
2017-Nov-30 13:28N 45°32' W 122°41'0 0.0
2017-Nov-30 12:58N 45°32' W 122°41'0 0.0
2017-Nov-30 12:28N 45°32' W 122°41'0 0.0
2017-Nov-30 11:58N 45°32' W 122°41'0 0.0
2017-Nov-30 11:28N 45°32' W 122°41'0 0.0
2017-Nov-30 10:58N 45°32' W 122°41'0 0.0
2017-Nov-30 10:28N 45°32' W 122°41'0 0.0
2017-Nov-30 09:58N 45°32' W 122°41'0 0.0
2017-Nov-30 09:28N 45°32' W 122°41'0 0.0
2017-Nov-30 08:58N 45°32' W 122°41'0 0.0
2017-Nov-30 08:28N 45°32' W 122°41'0 0.0
2017-Nov-30 07:58N 45°32' W 122°41'0 0.0
2017-Nov-30 07:28N 45°32' W 122°41'0 0.0
2017-Nov-30 06:58N 45°32' W 122°41'0 0.0
2017-Nov-30 06:28N 45°32' W 122°41'0 0.0
2017-Nov-30 05:58N 45°32' W 122°41'0 0.0
2017-Nov-30 05:28N 45°32' W 122°41'0 0.0
2017-Nov-30 04:58N 45°32' W 122°41'0 0.0
2017-Nov-30 04:28N 45°32' W 122°41'0 0.0
2017-Nov-30 03:58N 45°32' W 122°41'0 0.0
2017-Nov-30 03:28N 45°32' W 122°41'0 0.0
2017-Nov-30 02:58N 45°32' W 122°41'0 0.0
2017-Nov-30 02:28N 45°32' W 122°41'0 0.0
2017-Nov-30 01:58N 45°32' W 122°41'0 0.0
2017-Nov-30 01:28N 45°32' W 122°41'0 0.0
2017-Nov-30 00:58N 45°32' W 122°41'0 0.0
2017-Nov-30 00:25N 45°32' W 122°41'0 0.0
2017-Nov-29 23:55N 45°32' W 122°41'0 0.0
2017-Nov-29 23:28N 45°32' W 122°41'0 0.0
2017-Nov-29 22:58N 45°32' W 122°41'0 0.0
2017-Nov-29 22:28N 45°32' W 122°41'0 0.0
2017-Nov-29 21:58N 45°32' W 122°41'0 0.0
2017-Nov-29 21:28N 45°32' W 122°41'0 0.0
2017-Nov-29 20:58N 45°32' W 122°41'0 0.0
2017-Nov-29 20:28N 45°32' W 122°41'0 0.0
2017-Nov-29 19:55N 45°32' W 122°41'0 0.0
2017-Nov-29 19:28N 45°32' W 122°41'0 0.0
2017-Nov-29 18:58N 45°32' W 122°41'0 0.0
2017-Nov-29 18:28N 45°32' W 122°41'0 0.0
2017-Nov-29 17:58N 45°32' W 122°41'0 0.0
2017-Nov-29 17:28N 45°32' W 122°41'0 0.0
2017-Nov-29 16:58N 45°32' W 122°41'0 0.0
2017-Nov-29 16:28N 45°32' W 122°41'0 0.0
2017-Nov-29 15:58N 45°32' W 122°41'0 0.0
2017-Nov-29 15:28N 45°32' W 122°41'0 0.0
2017-Nov-29 14:58N 45°32' W 122°41'0 0.0
2017-Nov-29 14:28N 45°32' W 122°41'0 0.0
2017-Nov-29 13:58N 45°32' W 122°41'0 0.0
2017-Nov-29 13:28N 45°32' W 122°41'0 0.0
2017-Nov-29 12:55N 45°32' W 122°41'0 0.0
2017-Nov-29 12:28N 45°32' W 122°41'0 0.0
2017-Nov-29 11:58N 45°32' W 122°41'0 0.0
2017-Nov-29 11:28N 45°32' W 122°41'0 0.0
2017-Nov-29 10:58N 45°32' W 122°41'0 0.0
2017-Nov-29 10:28N 45°32' W 122°41'0 0.0
2017-Nov-29 09:58N 45°32' W 122°41'0 0.0
2017-Nov-29 09:28N 45°32' W 122°41'0 0.0
2017-Nov-29 08:58N 45°32' W 122°41'0 0.0
2017-Nov-29 08:28N 45°32' W 122°41'0 0.0
2017-Nov-29 07:58N 45°32' W 122°41'0 0.0
2017-Nov-29 07:28N 45°32' W 122°41'0 0.0
2017-Nov-29 06:58N 45°32' W 122°41'0 0.0
2017-Nov-29 06:28N 45°32' W 122°41'0 0.0
2017-Nov-29 05:55N 45°32' W 122°41'0 0.0
2017-Nov-29 05:28N 45°32' W 122°41'0 0.0
2017-Nov-29 05:00N 45°32' W 122°41'0 0.0
2017-Nov-29 04:28N 45°32' W 122°41'0 0.0
2017-Nov-29 03:58N 45°32' W 122°41'0 0.0
2017-Nov-29 03:28N 45°32' W 122°41'0 0.0
2017-Nov-29 02:58N 45°32' W 122°41'0 0.0
2017-Nov-29 02:28N 45°32' W 122°41'0 0.0
2017-Nov-29 01:58N 45°32' W 122°41'0 0.0
2017-Nov-29 01:28N 45°32' W 122°41'0 0.0
2017-Nov-29 00:58N 45°32' W 122°41'0 0.0
2017-Nov-29 00:28N 45°32' W 122°41'0 0.0
2017-Nov-28 23:58N 45°32' W 122°41'0 0.0
2017-Nov-28 23:28N 45°32' W 122°41'0 0.0
2017-Nov-28 22:58N 45°32' W 122°41'0 0.0
2017-Nov-28 22:28N 45°32' W 122°41'0 0.0
2017-Nov-28 21:58N 45°32' W 122°41'0 0.0
2017-Nov-28 21:28N 45°32' W 122°41'0 0.0
2017-Nov-28 20:58N 45°32' W 122°41'0 0.0
2017-Nov-28 20:28N 45°32' W 122°41'0 0.0
2017-Nov-28 19:58N 45°32' W 122°41'0 0.0
2017-Nov-28 19:28N 45°32' W 122°41'0 0.0
2017-Nov-28 18:58N 45°32' W 122°41'0 0.0
2017-Nov-28 18:28N 45°32' W 122°41'0 0.0
2017-Nov-28 17:58N 45°32' W 122°41'0 0.0
2017-Nov-28 17:28N 45°32' W 122°41'0 0.0
2017-Nov-28 16:58N 45°32' W 122°41'0 0.0
2017-Nov-28 16:28N 45°32' W 122°41'0 0.0
2017-Nov-28 15:58N 45°32' W 122°41'0 0.0
2017-Nov-28 14:58N 45°32' W 122°41'0 0.0
2017-Nov-28 14:28N 45°32' W 122°41'0 0.0
2017-Nov-28 13:58N 45°32' W 122°41'0 0.0
2017-Nov-28 13:25N 45°32' W 122°41'0 0.0
2017-Nov-28 12:58N 45°32' W 122°41'0 0.0
2017-Nov-28 12:28N 45°32' W 122°41'0 0.0
2017-Nov-28 11:58N 45°32' W 122°41'0 0.0
2017-Nov-28 11:28N 45°32' W 122°41'0 0.0
2017-Nov-28 10:58N 45°32' W 122°41'0 0.0
2017-Nov-28 10:28N 45°32' W 122°41'0 0.0
2017-Nov-28 09:58N 45°32' W 122°41'0 0.0
2017-Nov-28 09:25N 45°32' W 122°41'0 0.0
2017-Nov-28 08:58N 45°32' W 122°41'0 0.0
2017-Nov-28 08:28N 45°32' W 122°41'0 0.0
2017-Nov-28 07:58N 45°32' W 122°41'0 0.0
2017-Nov-28 07:28N 45°32' W 122°41'0 0.0
2017-Nov-28 06:58N 45°32' W 122°41'0 0.0
2017-Nov-28 06:28N 45°32' W 122°41'0 0.0
2017-Nov-28 05:58N 45°32' W 122°41'0 0.0
2017-Nov-28 05:28N 45°32' W 122°41'0 0.0
2017-Nov-28 04:28N 45°32' W 122°41'0 0.0
2017-Nov-28 03:58N 45°32' W 122°41'0 0.0
2017-Nov-28 03:28N 45°32' W 122°41'0 0.0
2017-Nov-28 02:58N 45°32' W 122°41'0 0.0
2017-Nov-28 02:28N 45°32' W 122°41'0 0.0
2017-Nov-28 01:58N 45°32' W 122°41'0 0.0
2017-Nov-28 01:28N 45°32' W 122°41'0 0.0
2017-Nov-28 00:58N 45°32' W 122°41'0 0.0
2017-Nov-28 00:28N 45°32' W 122°41'0 0.0
2017-Nov-27 23:58N 45°32' W 122°41'0 0.0
2017-Nov-27 23:28N 45°32' W 122°41'0 0.0
2017-Nov-27 22:58N 45°32' W 122°41'0 0.0
2017-Nov-27 22:28N 45°32' W 122°41'0 0.0
2017-Nov-27 21:58N 45°32' W 122°41'0 0.0
2017-Nov-27 21:28N 45°32' W 122°41'0 0.0
2017-Nov-27 20:58N 45°32' W 122°41'0 0.0
2017-Nov-27 20:28N 45°32' W 122°41'0 0.0
2017-Nov-27 19:58N 45°32' W 122°41'0 0.0
2017-Nov-27 19:28N 45°32' W 122°41'0 0.0
2017-Nov-27 18:58N 45°32' W 122°41'0 0.0
2017-Nov-27 18:28N 45°32' W 122°41'0 0.0
2017-Nov-27 17:58N 45°32' W 122°41'0 0.0
2017-Nov-27 17:28N 45°32' W 122°41'0 0.0
2017-Nov-27 16:58N 45°32' W 122°41'0 0.0
2017-Nov-27 16:28N 45°32' W 122°41'0 0.0
2017-Nov-27 15:58N 45°32' W 122°41'0 0.0
2017-Nov-27 15:28N 45°32' W 122°41'0 0.0
2017-Nov-27 14:58N 45°32' W 122°41'0 0.0
2017-Nov-27 14:25N 45°32' W 122°41'0 0.0
2017-Nov-27 13:58N 45°32' W 122°41'0 0.0
2017-Nov-27 13:28N 45°32' W 122°41'0 0.0
2017-Nov-27 12:58N 45°32' W 122°41'0 0.0
2017-Nov-27 12:28N 45°32' W 122°41'0 0.0
2017-Nov-27 11:58N 45°32' W 122°41'0 0.0
2017-Nov-27 11:28N 45°32' W 122°41'0 0.0
2017-Nov-27 10:58N 45°32' W 122°41'0 0.0
2017-Nov-27 10:28N 45°32' W 122°41'0 0.0
2017-Nov-27 09:58N 45°32' W 122°41'0 0.0
2017-Nov-27 09:28N 45°32' W 122°41'0 0.0
2017-Nov-27 08:58N 45°32' W 122°41'0 0.0
2017-Nov-27 08:28N 45°32' W 122°41'0 0.0
2017-Nov-27 07:58N 45°32' W 122°41'0 0.0
2017-Nov-27 07:28N 45°32' W 122°41'0 0.0
2017-Nov-27 06:58N 45°32' W 122°41'0 0.0
2017-Nov-27 06:28N 45°32' W 122°41'0 0.0
2017-Nov-27 05:58N 45°32' W 122°41'0 0.0
2017-Nov-27 05:28N 45°32' W 122°41'0 0.0
2017-Nov-27 04:58N 45°32' W 122°41'0 0.0
2017-Nov-27 04:28N 45°32' W 122°41'0 0.0
2017-Nov-27 03:58N 45°32' W 122°41'0 0.0
2017-Nov-27 03:28N 45°32' W 122°41'0 0.0
2017-Nov-27 02:59N 45°32' W 122°41'0 0.0
2017-Nov-27 02:28N 45°32' W 122°41'0 0.0
2017-Nov-27 01:58N 45°32' W 122°41'0 0.0
2017-Nov-27 01:28N 45°32' W 122°41'0 0.0
2017-Nov-27 00:58N 45°32' W 122°41'0 0.0
2017-Nov-27 00:28N 45°32' W 122°41'0 0.0
2017-Nov-26 23:58N 45°32' W 122°41'0 0.0
2017-Nov-26 23:28N 45°32' W 122°41'0 0.0
2017-Nov-26 22:58N 45°32' W 122°41'0 0.0
2017-Nov-26 22:28N 45°32' W 122°41'0 0.0
2017-Nov-26 21:58N 45°32' W 122°41'0 0.0
2017-Nov-26 21:28N 45°32' W 122°41'0 0.0
2017-Nov-26 20:55N 45°32' W 122°41'0 0.0
2017-Nov-26 20:28N 45°32' W 122°41'0 0.0
2017-Nov-26 19:58N 45°32' W 122°41'0 0.0
2017-Nov-26 19:25N 45°32' W 122°41'0 0.0
2017-Nov-26 18:58N 45°32' W 122°41'0 0.0
2017-Nov-26 18:28N 45°32' W 122°41'0 0.0
2017-Nov-26 17:58N 45°32' W 122°41'0 0.0
2017-Nov-26 17:28N 45°32' W 122°41'0 0.0
2017-Nov-26 16:58N 45°32' W 122°41'0 0.0
2017-Nov-26 16:28N 45°32' W 122°41'0 0.0
2017-Nov-26 15:58N 45°32' W 122°41'0 0.0
2017-Nov-26 15:28N 45°32' W 122°41'0 0.0
2017-Nov-26 14:58N 45°32' W 122°41'0 0.0
2017-Nov-26 14:28N 45°32' W 122°41'0 0.0
2017-Nov-26 13:58N 45°32' W 122°41'0 0.0
2017-Nov-26 13:28N 45°32' W 122°41'0 0.0
2017-Nov-26 12:58N 45°32' W 122°41'0 0.0
2017-Nov-26 12:28N 45°32' W 122°41'0 0.0
2017-Nov-26 11:58N 45°32' W 122°41'0 0.0
2017-Nov-26 11:28N 45°32' W 122°41'0 0.0
2017-Nov-26 10:58N 45°32' W 122°41'0 0.0
2017-Nov-26 10:28N 45°32' W 122°41'0 0.0
2017-Nov-26 09:58N 45°32' W 122°41'0 0.0
2017-Nov-26 09:28N 45°32' W 122°41'0 0.0
2017-Nov-26 08:58N 45°32' W 122°41'0 0.0
2017-Nov-26 08:28N 45°32' W 122°41'0 0.0
2017-Nov-26 07:58N 45°32' W 122°41'0 0.0
2017-Nov-26 07:28N 45°32' W 122°41'0 0.0
2017-Nov-26 06:58N 45°32' W 122°41'0 0.0
2017-Nov-26 06:28N 45°32' W 122°41'0 0.0
2017-Nov-26 05:58N 45°32' W 122°41'0 0.0
2017-Nov-26 05:28N 45°32' W 122°41'0 0.0
2017-Nov-26 04:58N 45°32' W 122°41'0 0.0
2017-Nov-26 04:28N 45°32' W 122°41'0 0.0
2017-Nov-26 03:58N 45°32' W 122°41'0 0.0
2017-Nov-26 03:28N 45°32' W 122°41'0 0.0
2017-Nov-26 02:52N 45°32' W 122°41'0 0.0
2017-Nov-26 02:28N 45°32' W 122°41'0 0.0
2017-Nov-26 01:58N 45°32' W 122°41'0 0.0
2017-Nov-26 01:28N 45°32' W 122°41'0 0.0
2017-Nov-26 00:55N 45°32' W 122°41'0 0.0
2017-Nov-26 00:28N 45°32' W 122°41'0 0.0
2017-Nov-25 23:58N 45°32' W 122°41'0 0.0
2017-Nov-25 23:28N 45°32' W 122°41'0 0.0
2017-Nov-25 22:58N 45°32' W 122°41'0 0.0
2017-Nov-25 22:28N 45°32' W 122°41'0 0.0
2017-Nov-25 21:58N 45°32' W 122°41'0 0.0
2017-Nov-25 21:28N 45°32' W 122°41'0 0.0
2017-Nov-25 20:58N 45°32' W 122°41'0 0.0
2017-Nov-25 20:28N 45°32' W 122°41'0 0.0
2017-Nov-25 19:58N 45°32' W 122°41'0 0.0
2017-Nov-25 19:28N 45°32' W 122°41'0 0.0
2017-Nov-25 18:58N 45°32' W 122°41'0 0.0
2017-Nov-25 18:28N 45°32' W 122°41'0 0.0
2017-Nov-25 17:58N 45°32' W 122°41'0 0.0
2017-Nov-25 17:28N 45°32' W 122°41'0 0.0
2017-Nov-25 16:58N 45°32' W 122°41'0 0.0
2017-Nov-25 16:28N 45°32' W 122°41'0 0.0
2017-Nov-25 15:58N 45°32' W 122°41'0 0.0
2017-Nov-25 15:25N 45°32' W 122°41'0 0.0
2017-Nov-25 14:55N 45°32' W 122°41'0 0.0
2017-Nov-25 14:25N 45°32' W 122°41'0 0.0
2017-Nov-25 13:58N 45°32' W 122°41'0 0.0
2017-Nov-25 13:28N 45°32' W 122°41'1 1.8
2017-Nov-25 13:01N 45°33' W 122°41'4 7.6
2017-Nov-25 12:31N 45°35' W 122°46'4 8.0
2017-Nov-25 12:01N 45°39' W 122°46'4 8.7
2017-Nov-25 11:31N 45°43' W 122°46'510.9
2017-Nov-25 11:01N 45°49' W 122°48'510.5
2017-Nov-25 10:31N 45°54' W 122°48'5 9.9
2017-Nov-25 10:01N 45°59' W 122°50'4 8.3
2017-Nov-25 09:31N 46°02' W 122°53'4 8.8
2017-Nov-25 09:00N 46°06' W 122°57'4 7.8
2017-Nov-25 08:31N 46°08' W 123°01'611.0
2017-Nov-25 08:01N 46°11' W 123°08'510.1
2017-Nov-25 07:31N 46°10' W 123°15'510.5
2017-Nov-25 07:00N 46°09' W 123°22'7 9.5
2017-Nov-25 06:16N 46°15' W 123°27'310.6
2017-Nov-25 06:00N 46°16' W 123°30'611.1
2017-Nov-25 05:31N 46°16' W 123°38'5 9.5
2017-Nov-25 05:01N 46°14' W 123°45'0 0.2
2017-Nov-25 04:28N 46°14' W 123°45'0 0.0
2017-Nov-25 03:46N 46°14' W 123°45'0 0.0
2017-Nov-25 03:28N 46°14' W 123°45'0 0.0
2017-Nov-25 02:55N 46°14' W 123°45'0 0.0
2017-Nov-25 02:25N 46°14' W 123°45'0 0.0
2017-Nov-25 01:58N 46°14' W 123°45'0 0.1
2017-Nov-25 01:28N 46°14' W 123°45'0 0.1
2017-Nov-25 00:37N 46°14' W 123°45'0 0.0
2017-Nov-25 00:28N 46°14' W 123°45'0 0.2
2017-Nov-24 23:58N 46°14' W 123°45'0 0.0
2017-Nov-24 23:28N 46°14' W 123°45'0 0.0
2017-Nov-24 22:58N 46°14' W 123°45'0 0.2
2017-Nov-24 22:28N 46°14' W 123°45'0 0.0
2017-Nov-24 21:58N 46°14' W 123°45'0 0.0
2017-Nov-24 21:28N 46°14' W 123°45'0 0.1
2017-Nov-24 20:58N 46°14' W 123°45'0 0.1
2017-Nov-24 20:28N 46°14' W 123°45'0 0.1
2017-Nov-24 19:58N 46°14' W 123°45'0 0.1
2017-Nov-24 19:28N 46°14' W 123°45'0 0.0
2017-Nov-24 18:58N 46°14' W 123°45'0 0.0
2017-Nov-24 18:22N 46°14' W 123°45'0 0.0
2017-Nov-24 17:58N 46°14' W 123°45'0 0.0
2017-Nov-24 17:28N 46°14' W 123°45'0 0.0
2017-Nov-24 16:58N 46°14' W 123°45'0 0.0
2017-Nov-24 16:28N 46°14' W 123°45'0 0.0
2017-Nov-24 15:58N 46°14' W 123°45'0 0.0
2017-Nov-24 14:52N 46°14' W 123°45'0 0.1
2017-Nov-24 14:28N 46°14' W 123°45'0 0.0
2017-Nov-24 13:55N 46°14' W 123°45'0 0.3
2017-Nov-24 13:25N 46°14' W 123°45'0 0.1
2017-Nov-24 12:55N 46°14' W 123°45'0 0.1
2017-Nov-24 12:28N 46°14' W 123°45'0 0.1
2017-Nov-24 11:58N 46°14' W 123°44'0 0.0
2017-Nov-24 11:28N 46°14' W 123°44'0 0.0
2017-Nov-24 10:58N 46°14' W 123°44'  

Dump ship's entire track history